Time;durP1;ratioP1;P1;durP2;ratioP2;P2;SDS_P1;SDS_P2;PMS_P1;PMS_P2;Temp;Humidity;BMP_temperature;BMP_pressure;BME280_temperature;BME280_humidity;BME280_pressure;Samples;Min_cycle;Max_cycle;Signal;HPM_P1;HPM_P2
2023/09/15 00:00:06;;;;;;;4.65;2.63;;;;;;;;;;6184281;23;20084;-69
2023/09/15 00:02:33;;;;;;;2.85;2.55;;;;;;;;;;6184180;23;20079;-69
2023/09/15 00:04:59;;;;;;;2.33;2.13;;;;;;;;;;6184699;23;20076;-69
2023/09/15 00:07:25;;;;;;;4.47;2.45;;;;;;;;;;6184929;23;20076;-69
2023/09/15 00:09:52;;;;;;;5.10;2.28;;;;;;;;;;6185762;23;20072;-69
2023/09/15 00:12:18;;;;;;;2.58;2.15;;;;;;;;;;6186105;23;20076;-69
2023/09/15 00:14:46;;;;;;;7.63;2.40;;;;;;;;;;6186070;23;20112;-69
2023/09/15 00:17:12;;;;;;;3.50;2.33;;;;;;;;;;6185432;23;20072;-69
2023/09/15 00:19:41;;;;;;;2.50;2.20;;;;;;;;;;6185907;23;20096;-69
2023/09/15 00:22:07;;;;;;;4.47;2.30;;;;;;;;;;6185765;23;20064;-69
2023/09/15 00:24:35;;;;;;;5.15;2.40;;;;;;;;;;6159512;23;20092;-68
2023/09/15 00:27:01;;;;;;;2.33;2.13;;;;;;;;;;6185886;23;20084;-68
2023/09/15 00:29:28;;;;;;;4.68;2.67;;;;;;;;;;6185792;23;20096;-69
2023/09/15 00:31:55;;;;;;;3.70;2.45;;;;;;;;;;6158931;23;20104;-69
2023/09/15 00:34:21;;;;;;;2.50;2.30;;;;;;;;;;6185844;23;20068;-69
2023/09/15 00:36:49;;;;;;;5.60;2.38;;;;;;;;;;6185709;23;20079;-69
2023/09/15 00:39:15;;;;;;;2.70;2.33;;;;;;;;;;6185844;23;20092;-69
2023/09/15 00:41:41;;;;;;;3.28;2.35;;;;;;;;;;6185553;23;20064;-69
2023/09/15 00:44:08;;;;;;;2.70;2.38;;;;;;;;;;6185739;23;20080;-69
2023/09/15 00:46:34;;;;;;;3.15;2.63;;;;;;;;;;6185202;23;20072;-69
2023/09/15 00:49:01;;;;;;;3.40;2.45;;;;;;;;;;6185736;23;20080;-69
2023/09/15 00:51:28;;;;;;;2.53;2.33;;;;;;;;;;6185417;23;20377;-68
2023/09/15 00:53:57;;;;;;;3.13;2.80;;;;;;;;;;6185540;23;20076;-68
2023/09/15 00:56:24;;;;;;;5.50;2.40;;;;;;;;;;6185703;23;20422;-70
2023/09/15 00:58:50;;;;;;;3.58;2.40;;;;;;;;;;6185538;23;20119;-69
2023/09/15 01:01:17;;;;;;;3.63;2.63;;;;;;;;;;6184688;23;20076;-69
2023/09/15 01:03:44;;;;;;;3.85;2.50;;;;;;;;;;6185625;23;20080;-69
2023/09/15 01:06:12;;;;;;;3.50;2.30;;;;;;;;;;6185502;23;20072;-69
2023/09/15 01:08:38;;;;;;;5.95;2.55;;;;;;;;;;6185407;23;20081;-69
2023/09/15 01:11:05;;;;;;;3.15;2.50;;;;;;;;;;6185175;23;20068;-70
2023/09/15 01:13:32;;;;;;;3.65;2.15;;;;;;;;;;6185469;23;20091;-68
2023/09/15 01:16:04;;;;;;;3.90;2.63;;;;;;;;;;6185020;23;20065;-68
2023/09/15 01:18:39;;;;;;;5.65;2.30;;;;;;;;;;6185306;23;20072;-69
2023/09/15 01:21:24;;;;;;;2.90;2.58;;;;;;;;;;6185108;23;20383;-69
2023/09/15 01:23:53;;;;;;;4.13;2.25;;;;;;;;;;6185237;23;20096;-69
2023/09/15 01:26:38;;;;;;;5.55;2.45;;;;;;;;;;6185250;23;20076;-68
2023/09/15 01:29:07;;;;;;;3.30;2.60;;;;;;;;;;6185029;23;20077;-69
2023/09/15 01:31:35;;;;;;;2.63;2.33;;;;;;;;;;6185129;23;20092;-69
2023/09/15 01:34:01;;;;;;;2.42;2.22;;;;;;;;;;6185175;23;20080;-69
2023/09/15 01:36:28;;;;;;;4.97;2.40;;;;;;;;;;6185230;23;20088;-69
2023/09/15 01:38:54;;;;;;;8.95;2.90;;;;;;;;;;6185139;23;20092;-68
2023/09/15 01:41:20;;;;;;;7.05;2.60;;;;;;;;;;6184970;23;20071;-68
2023/09/15 01:43:47;;;;;;;3.47;2.70;;;;;;;;;;6184820;23;20104;-69
2023/09/15 01:46:13;;;;;;;2.85;2.40;;;;;;;;;;6185220;23;20080;-68
2023/09/15 01:48:40;;;;;;;3.22;2.47;;;;;;;;;;6185074;23;20076;-69
2023/09/15 01:51:07;;;;;;;3.30;2.47;;;;;;;;;;6185102;23;20076;-69
2023/09/15 01:53:35;;;;;;;3.65;2.70;;;;;;;;;;6184949;23;20068;-69
2023/09/15 01:56:01;;;;;;;3.85;2.53;;;;;;;;;;6184971;23;20393;-68
2023/09/15 01:58:28;;;;;;;5.13;2.40;;;;;;;;;;6184616;23;20084;-69
2023/09/15 02:00:54;;;;;;;5.97;2.50;;;;;;;;;;6184895;23;20489;-68
2023/09/15 02:03:21;;;;;;;3.50;2.30;;;;;;;;;;6184737;23;20076;-69
2023/09/15 02:05:47;;;;;;;3.03;2.67;;;;;;;;;;6184806;23;20076;-69
2023/09/15 02:08:13;;;;;;;3.92;2.80;;;;;;;;;;6185000;23;20395;-69
2023/09/15 02:10:40;;;;;;;7.75;2.58;;;;;;;;;;6184738;23;20077;-69
2023/09/15 02:13:06;;;;;;;5.40;2.60;;;;;;;;;;6184160;23;20180;-68
2023/09/15 02:15:32;;;;;;;5.30;2.72;;;;;;;;;;6184858;23;20499;-68
2023/09/15 02:17:59;;;;;;;5.18;3.25;;;;;;;;;;6184621;23;20373;-68
2023/09/15 02:20:25;;;;;;;2.88;2.58;;;;;;;;;;6184913;23;20076;-69
2023/09/15 02:22:52;;;;;;;3.72;3.00;;;;;;;;;;6184282;23;20087;-69
2023/09/15 02:25:18;;;;;;;2.83;2.38;;;;;;;;;;6184741;23;20076;-68
2023/09/15 02:27:45;;;;;;;5.50;2.70;;;;;;;;;;6184202;23;20439;-68
2023/09/15 02:30:12;;;;;;;3.00;2.70;;;;;;;;;;6184779;23;20068;-69
2023/09/15 02:32:38;;;;;;;3.20;2.63;;;;;;;;;;6184448;23;20083;-69
2023/09/15 02:35:04;;;;;;;3.10;2.80;;;;;;;;;;6184701;23;20072;-69
2023/09/15 02:37:31;;;;;;;3.72;2.58;;;;;;;;;;6184750;23;20080;-68
2023/09/15 02:39:57;;;;;;;7.50;2.80;;;;;;;;;;6184384;23;20092;-69
2023/09/15 02:42:23;;;;;;;3.78;2.95;;;;;;;;;;6184129;23;20370;-68
2023/09/15 02:44:50;;;;;;;3.45;2.55;;;;;;;;;;6184644;23;20087;-69
2023/09/15 02:47:16;;;;;;;4.15;2.70;;;;;;;;;;6184274;23;20511;-69
2023/09/15 02:49:42;;;;;;;7.07;3.22;;;;;;;;;;6184673;23;20068;-68
2023/09/15 02:52:09;;;;;;;5.28;3.20;;;;;;;;;;6184510;23;20716;-69
2023/09/15 02:54:35;;;;;;;3.15;2.70;;;;;;;;;;6184110;23;20080;-69
2023/09/15 02:57:02;;;;;;;5.60;2.85;;;;;;;;;;6184224;23;20084;-68
2023/09/15 02:59:29;;;;;;;3.33;2.90;;;;;;;;;;6184610;23;20087;-69
2023/09/15 03:01:55;;;;;;;4.82;3.00;;;;;;;;;;6184380;23;20076;-69
2023/09/15 03:04:21;;;;;;;3.13;2.70;;;;;;;;;;6184200;23;20068;-69
2023/09/15 03:06:48;;;;;;;4.25;2.92;;;;;;;;;;6184372;23;20072;-68
2023/09/15 03:09:16;;;;;;;5.93;3.08;;;;;;;;;;6184373;23;20072;-69
2023/09/15 03:11:42;;;;;;;3.40;3.10;;;;;;;;;;6183722;23;20083;-69
2023/09/15 03:14:09;;;;;;;6.30;3.03;;;;;;;;;;6183948;23;20080;-69
2023/09/15 03:16:35;;;;;;;4.78;2.53;;;;;;;;;;6184325;23;20076;-69
2023/09/15 03:19:03;;;;;;;5.32;3.00;;;;;;;;;;6184402;23;20088;-69
2023/09/15 03:21:30;;;;;;;3.70;2.90;;;;;;;;;;6184267;23;20104;-68
2023/09/15 03:23:56;;;;;;;3.67;3.15;;;;;;;;;;6157562;23;20100;-68
2023/09/15 03:26:22;;;;;;;3.47;2.97;;;;;;;;;;6183985;23;20084;-68
2023/09/15 03:28:49;;;;;;;4.03;3.03;;;;;;;;;;6184368;23;20100;-69
2023/09/15 03:31:15;;;;;;;3.28;2.97;;;;;;;;;;6184357;23;20076;-68
2023/09/15 03:33:41;;;;;;;3.03;2.72;;;;;;;;;;6184371;23;20093;-69
2023/09/15 03:36:09;;;;;;;4.63;2.90;;;;;;;;;;6184204;23;20389;-69
2023/09/15 03:38:35;;;;;;;2.90;2.67;;;;;;;;;;6184341;23;20084;-68
2023/09/15 03:41:01;;;;;;;3.58;2.58;;;;;;;;;;6184044;23;20549;-69
2023/09/15 03:43:27;;;;;;;3.20;2.90;;;;;;;;;;6184039;23;20076;-69
2023/09/15 03:45:54;;;;;;;6.88;2.97;;;;;;;;;;6184216;23;20072;-68
2023/09/15 03:48:20;;;;;;;4.13;2.95;;;;;;;;;;6182597;23;20073;-69
2023/09/15 03:50:47;;;;;;;3.50;2.95;;;;;;;;;;6182478;23;20080;-68
2023/09/15 03:53:13;;;;;;;3.58;2.88;;;;;;;;;;6182065;23;20076;-69
2023/09/15 03:55:40;;;;;;;4.07;3.13;;;;;;;;;;6182220;23;20088;-69
2023/09/15 03:58:07;;;;;;;3.33;2.85;;;;;;;;;;6156312;23;20076;-69
2023/09/15 04:00:33;;;;;;;6.32;3.10;;;;;;;;;;6182538;23;20080;-69
2023/09/15 04:03:03;;;;;;;4.60;3.40;;;;;;;;;;6182508;23;20069;-68
2023/09/15 04:05:30;;;;;;;5.28;2.83;;;;;;;;;;6182269;23;20092;-68
2023/09/15 04:07:56;;;;;;;5.35;3.30;;;;;;;;;;6157341;23;20072;-69
2023/09/15 04:10:23;;;;;;;7.18;3.20;;;;;;;;;;6184248;23;20076;-69
2023/09/15 04:12:49;;;;;;;5.80;3.30;;;;;;;;;;6184038;23;20077;-69
2023/09/15 04:15:16;;;;;;;6.32;3.40;;;;;;;;;;6183867;23;20123;-69
2023/09/15 04:17:43;;;;;;;4.93;2.90;;;;;;;;;;6184226;23;20060;-69
2023/09/15 04:20:10;;;;;;;5.22;3.45;;;;;;;;;;6184276;23;20088;-68
2023/09/15 04:22:37;;;;;;;9.73;3.00;;;;;;;;;;6183496;23;20077;-68
2023/09/15 04:25:05;;;;;;;5.97;3.17;;;;;;;;;;6185268;23;20381;-69
2023/09/15 04:27:34;;;;;;;5.22;2.90;;;;;;;;;;6185845;23;20547;-69
2023/09/15 04:30:01;;;;;;;7.68;3.25;;;;;;;;;;6185603;23;20084;-69
2023/09/15 04:32:27;;;;;;;4.10;3.30;;;;;;;;;;6159614;23;20080;-69
2023/09/15 04:34:54;;;;;;;3.40;3.00;;;;;;;;;;6185581;23;20076;-69
2023/09/15 04:37:20;;;;;;;5.05;3.17;;;;;;;;;;6185412;23;20072;-69
2023/09/15 04:39:49;;;;;;;4.22;3.25;;;;;;;;;;6185519;23;20551;-69
2023/09/15 04:42:16;;;;;;;5.32;3.35;;;;;;;;;;6185893;23;20380;-68
2023/09/15 04:44:42;;;;;;;3.60;3.30;;;;;;;;;;6185433;23;20076;-69
2023/09/15 04:47:09;;;;;;;6.28;3.75;;;;;;;;;;6185606;23;20064;-70
2023/09/15 04:49:35;;;;;;;3.25;2.92;;;;;;;;;;6185736;23;20080;-68
2023/09/15 04:52:03;;;;;;;5.32;3.28;;;;;;;;;;6185264;23;20071;-69
2023/09/15 04:54:29;;;;;;;3.75;2.92;;;;;;;;;;6159223;23;20474;-68
2023/09/15 04:56:56;;;;;;;5.30;3.05;;;;;;;;;;6185866;23;20076;-68
2023/09/15 04:59:22;;;;;;;3.88;3.10;;;;;;;;;;6185489;23;20504;-69
2023/09/15 05:01:49;;;;;;;5.00;3.55;;;;;;;;;;6185500;23;20072;-69
2023/09/15 05:04:15;;;;;;;4.40;2.75;;;;;;;;;;6185576;23;20442;-68
2023/09/15 05:06:42;;;;;;;8.48;3.40;;;;;;;;;;6184772;23;20483;-69
2023/09/15 05:09:09;;;;;;;7.28;3.20;;;;;;;;;;6185448;23;20383;-68
2023/09/15 05:11:38;;;;;;;3.42;3.13;;;;;;;;;;6185575;23;20373;-68
2023/09/15 05:14:04;;;;;;;5.18;2.90;;;;;;;;;;6185453;23;20084;-69
2023/09/15 05:16:31;;;;;;;5.28;3.38;;;;;;;;;;6185147;23;20406;-68
2023/09/15 05:18:57;;;;;;;4.70;3.20;;;;;;;;;;6185334;23;20539;-68
2023/09/15 05:21:23;;;;;;;4.93;3.80;;;;;;;;;;6184867;23;20068;-69
2023/09/15 05:23:50;;;;;;;4.72;3.75;;;;;;;;;;6185239;23;20095;-69
2023/09/15 05:26:16;;;;;;;7.78;3.65;;;;;;;;;;6185046;23;20084;-68
2023/09/15 05:28:43;;;;;;;8.60;3.22;;;;;;;;;;6185301;23;20111;-69
2023/09/15 05:31:11;;;;;;;4.68;3.20;;;;;;;;;;6185341;23;20080;-68
2023/09/15 05:33:38;;;;;;;7.03;3.78;;;;;;;;;;6185265;23;20088;-69
2023/09/15 05:36:04;;;;;;;3.67;3.30;;;;;;;;;;6183975;23;20084;-68
2023/09/15 05:38:31;;;;;;;5.75;3.50;;;;;;;;;;6185176;23;20563;-69
2023/09/15 05:40:57;;;;;;;5.00;3.25;;;;;;;;;;6185189;23;20404;-69
2023/09/15 05:43:24;;;;;;;4.05;3.60;;;;;;;;;;6185244;23;20075;-69
2023/09/15 05:45:50;;;;;;;3.40;3.10;;;;;;;;;;6184735;23;20119;-68
2023/09/15 05:48:22;;;;;;;4.20;3.55;;;;;;;;;;6185234;23;20072;-69
2023/09/15 05:50:50;;;;;;;6.50;3.60;;;;;;;;;;6184559;23;20076;-69
2023/09/15 05:53:16;;;;;;;5.80;3.30;;;;;;;;;;6185039;23;20096;-68
2023/09/15 05:55:42;;;;;;;6.05;3.60;;;;;;;;;;6184890;23;20080;-69
2023/09/15 05:58:09;;;;;;;4.60;3.45;;;;;;;;;;6184843;23;20076;-69
2023/09/15 06:00:35;;;;;;;7.05;3.30;;;;;;;;;;6183173;23;20084;-69
2023/09/15 06:03:02;;;;;;;4.95;3.35;;;;;;;;;;6183385;23;20391;-68
2023/09/15 06:05:29;;;;;;;5.55;3.10;;;;;;;;;;6157588;23;20084;-68
2023/09/15 06:07:55;;;;;;;5.47;3.03;;;;;;;;;;6184502;23;20068;-68
2023/09/15 06:10:22;;;;;;;5.25;3.22;;;;;;;;;;6183940;23;20082;-68
2023/09/15 06:12:51;;;;;;;3.20;2.90;;;;;;;;;;6184688;23;20072;-69
2023/09/15 06:15:18;;;;;;;5.43;3.20;;;;;;;;;;6184464;23;20373;-69
2023/09/15 06:17:44;;;;;;;4.88;3.33;;;;;;;;;;6183181;23;20088;-69
2023/09/15 06:20:11;;;;;;;4.30;3.30;;;;;;;;;;6178050;23;20413;-69
2023/09/15 06:22:38;;;;;;;11.18;3.42;;;;;;;;;;6183172;23;20076;-70
2023/09/15 06:25:04;;;;;;;7.68;2.72;;;;;;;;;;6184138;23;20099;-69
2023/09/15 06:27:33;;;;;;;5.68;3.17;;;;;;;;;;6181955;23;20079;-70
2023/09/15 06:29:59;;;;;;;3.42;3.13;;;;;;;;;;6183274;23;20499;-69
2023/09/15 06:32:25;;;;;;;6.28;3.58;;;;;;;;;;6183030;23;20096;-69
2023/09/15 06:34:52;;;;;;;5.47;3.17;;;;;;;;;;6178026;23;20072;-69
2023/09/15 06:37:18;;;;;;;5.03;3.65;;;;;;;;;;6181517;23;20123;-69
2023/09/15 06:39:44;;;;;;;6.63;3.70;;;;;;;;;;6156650;23;20021;-69
2023/09/15 06:42:11;;;;;;;9.05;3.40;;;;;;;;;;6181872;23;20128;-69
2023/09/15 06:44:37;;;;;;;5.72;3.72;;;;;;;;;;6182500;23;20068;-69
2023/09/15 06:47:04;;;;;;;6.20;3.30;;;;;;;;;;6179873;23;20084;-70
2023/09/15 06:49:32;;;;;;;5.90;2.90;;;;;;;;;;6181208;23;20076;-69
2023/09/15 06:51:58;;;;;;;4.68;2.80;;;;;;;;;;6182005;23;20076;-68
2023/09/15 06:54:25;;;;;;;6.35;2.90;;;;;;;;;;6155848;23;20076;-70
2023/09/15 06:56:51;;;;;;;5.30;2.90;;;;;;;;;;6182380;23;20080;-69
2023/09/15 06:59:18;;;;;;;6.15;3.05;;;;;;;;;;6181079;23;20027;-69
2023/09/15 07:01:44;;;;;;;6.93;3.13;;;;;;;;;;6181163;23;20526;-69
2023/09/15 07:04:13;;;;;;;3.10;2.78;;;;;;;;;;6181620;23;20072;-69
2023/09/15 07:06:40;;;;;;;8.98;3.28;;;;;;;;;;6181730;23;20466;-69
2023/09/15 07:09:07;;;;;;;3.50;2.63;;;;;;;;;;6181872;23;20072;-69
2023/09/15 07:11:33;;;;;;;3.10;2.80;;;;;;;;;;6181695;23;20080;-69
2023/09/15 07:13:59;;;;;;;5.93;2.97;;;;;;;;;;6179431;23;20104;-70
2023/09/15 07:16:26;;;;;;;5.15;3.15;;;;;;;;;;6181181;23;20084;-69
2023/09/15 07:18:52;;;;;;;4.80;2.90;;;;;;;;;;6155915;23;20016;-69
2023/09/15 07:21:18;;;;;;;4.90;2.75;;;;;;;;;;6182224;23;20096;-69
2023/09/15 07:23:45;;;;;;;4.93;2.90;;;;;;;;;;6182092;23;20087;-69
2023/09/15 07:26:11;;;;;;;3.08;2.70;;;;;;;;;;6181386;23;20151;-69
2023/09/15 07:28:38;;;;;;;5.65;3.05;;;;;;;;;;6182197;23;20084;-69
2023/09/15 07:31:07;;;;;;;4.80;2.65;;;;;;;;;;6181535;23;20080;-70
2023/09/15 07:33:33;;;;;;;5.30;3.10;;;;;;;;;;6180579;23;20088;-70
2023/09/15 07:36:04;;;;;;;12.48;2.88;;;;;;;;;;6156143;23;20072;-70
2023/09/15 07:38:33;;;;;;;4.70;2.92;;;;;;;;;;6182178;23;20079;-71
2023/09/15 07:41:00;;;;;;;6.05;2.72;;;;;;;;;;6181324;23;20434;-70
2023/09/15 07:43:26;;;;;;;5.35;2.85;;;;;;;;;;6181240;23;20076;-70
2023/09/15 07:45:52;;;;;;;4.78;3.13;;;;;;;;;;6181296;23;20806;-70
2023/09/15 07:48:21;;;;;;;3.40;3.10;;;;;;;;;;6155819;23;20068;-68
2023/09/15 07:50:47;;;;;;;5.55;2.85;;;;;;;;;;6181442;23;20217;-68
2023/09/15 07:53:13;;;;;;;7.57;2.90;;;;;;;;;;6182156;23;20072;-69
2023/09/15 07:55:40;;;;;;;3.25;2.70;;;;;;;;;;6182458;23;20082;-69
2023/09/15 07:58:06;;;;;;;2.60;2.35;;;;;;;;;;6181782;23;20104;-70
2023/09/15 08:00:32;;;;;;;4.28;2.65;;;;;;;;;;6182995;23;20017;-71
2023/09/15 08:02:59;;;;;;;3.13;2.50;;;;;;;;;;6184657;23;20489;-71
2023/09/15 08:05:25;;;;;;;5.35;2.50;;;;;;;;;;6183560;23;20076;-71
2023/09/15 08:07:51;;;;;;;2.72;2.30;;;;;;;;;;6183701;23;20080;-71
2023/09/15 08:10:19;;;;;;;2.35;2.03;;;;;;;;;;6183726;23;20071;-71
2023/09/15 08:12:48;;;;;;;2.40;2.17;;;;;;;;;;6184198;23;20005;-71
2023/09/15 08:15:16;;;;;;;2.20;2.00;;;;;;;;;;6182887;23;20072;-71
2023/09/15 08:17:42;;;;;;;3.17;2.00;;;;;;;;;;6183599;23;20079;-76
2023/09/15 08:20:11;;;;;;;5.72;2.15;;;;;;;;;;6157476;23;20084;-71
2023/09/15 08:22:41;;;;;;;2.47;2.28;;;;;;;;;;6183877;23;20071;-72
2023/09/15 08:25:09;;;;;;;3.35;1.70;;;;;;;;;;6183883;23;20088;-72
2023/09/15 08:27:35;;;;;;;2.20;2.00;;;;;;;;;;6183420;23;20124;-72
2023/09/15 08:30:01;;;;;;;3.28;1.95;;;;;;;;;;6156496;23;20088;-72
2023/09/15 08:32:28;;;;;;;3.00;2.50;;;;;;;;;;6157740;23;20077;-72
2023/09/15 08:34:54;;;;;;;3.90;2.50;;;;;;;;;;6183441;23;20079;-71
2023/09/15 08:37:20;;;;;;;2.70;2.13;;;;;;;;;;6183593;23;20072;-70
2023/09/15 08:39:47;;;;;;;2.58;2.38;;;;;;;;;;6182007;23;20091;-71
2023/09/15 08:42:15;;;;;;;5.30;2.05;;;;;;;;;;6183766;23;20092;-70
2023/09/15 08:44:42;;;;;;;3.40;2.20;;;;;;;;;;6183356;23;20080;-70
2023/09/15 08:47:09;;;;;;;2.30;2.10;;;;;;;;;;6183286;23;20112;-70
2023/09/15 08:49:36;;;;;;;3.75;2.20;;;;;;;;;;6182322;23;20161;-67
2023/09/15 08:52:04;;;;;;;3.53;2.00;;;;;;;;;;6183674;23;20084;-70
2023/09/15 08:54:33;;;;;;;2.50;2.30;;;;;;;;;;6183866;23;20075;-70
2023/09/15 08:57:01;;;;;;;;;;;;;;;;;;6183166;23;20086;-71
2023/09/15 08:59:27;;;;;;;4.90;2.00;;;;;;;;;;6182467;23;20006;-70
2023/09/15 09:01:54;;;;;;;4.80;2.03;;;;;;;;;;6182878;23;20543;-68
2023/09/15 09:04:20;;;;;;;2.42;1.88;;;;;;;;;;6183098;23;20080;-69
2023/09/15 09:06:47;;;;;;;2.45;2.00;;;;;;;;;;6157210;23;20392;-68
2023/09/15 09:09:15;;;;;;;5.03;2.10;;;;;;;;;;6183443;23;20096;-68
2023/09/15 09:11:42;;;;;;;2.10;1.80;;;;;;;;;;6156937;23;20139;-68
2023/09/15 09:14:12;;;;;;;1.80;1.48;;;;;;;;;;6183282;23;20495;-68
2023/09/15 09:16:44;;;;;;;2.85;1.80;;;;;;;;;;6183480;23;20491;-68
2023/09/15 09:19:11;;;;;;;3.10;1.63;;;;;;;;;;6183816;23;20395;-68
2023/09/15 09:21:38;;;;;;;2.67;1.52;;;;;;;;;;6184369;23;20084;-68
2023/09/15 09:24:04;;;;;;;3.10;1.60;;;;;;;;;;6183791;23;20091;-70
2023/09/15 09:26:31;;;;;;;2.70;1.60;;;;;;;;;;6183582;23;20083;-71
2023/09/15 09:28:57;;;;;;;1.67;1.58;;;;;;;;;;6182485;23;20380;-70
2023/09/15 09:31:25;;;;;;;2.55;1.73;;;;;;;;;;6183707;23;20091;-69
2023/09/15 09:33:52;;;;;;;3.63;1.88;;;;;;;;;;6183421;23;20083;-69
2023/09/15 09:36:18;;;;;;;6.70;1.65;;;;;;;;;;6182849;23;20099;-69
2023/09/15 09:38:52;;;;;;;1.95;1.70;;;;;;;;;;6183546;23;20099;-70
2023/09/15 09:41:19;;;;;;;3.15;1.98;;;;;;;;;;6183940;23;20495;-69
2023/09/15 09:43:49;;;;;;;2.50;1.90;;;;;;;;;;6180112;23;20076;-70
2023/09/15 09:46:16;;;;;;;3.08;2.00;;;;;;;;;;6181525;23;20063;-70
2023/09/15 09:48:45;;;;;;;2.33;1.90;;;;;;;;;;6181536;23;20507;-70
2023/09/15 09:51:13;;;;;;;5.80;2.33;;;;;;;;;;6183256;23;20405;-70
2023/09/15 09:53:40;;;;;;;3.90;2.20;;;;;;;;;;6181610;23;20139;-70
2023/09/15 09:56:06;;;;;;;2.70;2.03;;;;;;;;;;6182325;23;20092;-70
2023/09/15 09:58:33;;;;;;;2.72;2.10;;;;;;;;;;6181938;23;20439;-70
2023/09/15 10:01:00;;;;;;;4.18;2.60;;;;;;;;;;6182269;23;20100;-69
2023/09/15 10:03:26;;;;;;;2.10;2.00;;;;;;;;;;6181017;23;20080;-68
2023/09/15 10:05:52;;;;;;;7.43;2.50;;;;;;;;;;6182644;23;20076;-71
2023/09/15 10:08:19;;;;;;;3.45;2.50;;;;;;;;;;6182534;23;20080;-70
2023/09/15 10:10:49;;;;;;;4.72;2.60;;;;;;;;;;6183113;23;20123;-70
2023/09/15 10:13:15;;;;;;;7.97;2.15;;;;;;;;;;6183414;23;20076;-70
2023/09/15 10:15:42;;;;;;;2.67;2.40;;;;;;;;;;6183885;23;20430;-70
2023/09/15 10:18:12;;;;;;;3.67;2.83;;;;;;;;;;6183505;23;20143;-69
2023/09/15 10:20:38;;;;;;;;;;;;;;;;;;6183937;23;20085;-70
2023/09/15 10:23:06;;;;;;;3.55;2.63;;;;;;;;;;6183250;23;20378;-70
2023/09/15 10:25:49;;;;;;;7.03;2.70;;;;;;;;;;6183201;23;20076;-70
2023/09/15 10:28:17;;;;;;;4.18;2.33;;;;;;;;;;6182046;23;20081;-71
2023/09/15 10:30:45;;;;;;;2.63;2.28;;;;;;;;;;6183172;23;20029;-70
2023/09/15 10:33:11;;;;;;;3.22;2.30;;;;;;;;;;6156751;23;20509;-70
2023/09/15 10:35:43;;;;;;;5.03;2.05;;;;;;;;;;6183643;23;20099;-70
2023/09/15 10:38:10;;;;;;;3.47;2.40;;;;;;;;;;6183731;23;20385;-71
2023/09/15 10:40:49;;;;;;;3.13;2.35;;;;;;;;;;6183027;23;20092;-70
2023/09/15 10:43:17;;;;;;;5.23;2.73;;;;;;;;;;6183268;23;20092;-70
2023/09/15 10:46:02;;;;;;;3.63;2.83;;;;;;;;;;6183340;23;20380;-70
2023/09/15 10:48:46;;;;;;;4.07;2.50;;;;;;;;;;6183425;23;20096;-71
2023/09/15 10:51:16;;;;;;;2.92;2.45;;;;;;;;;;6183428;23;20383;-70
2023/09/15 10:53:43;;;;;;;3.22;2.65;;;;;;;;;;6183541;23;20081;-67
2023/09/15 10:56:10;;;;;;;3.50;2.08;;;;;;;;;;6182872;23;20079;-67
2023/09/15 10:58:37;;;;;;;3.45;2.08;;;;;;;;;;6183384;23;20072;-70
2023/09/15 11:01:03;;;;;;;2.20;2.00;;;;;;;;;;6183368;23;20076;-71
2023/09/15 11:03:30;;;;;;;2.53;1.80;;;;;;;;;;6183697;23;20071;-70
2023/09/15 11:05:57;;;;;;;2.25;2.00;;;;;;;;;;6183379;23;20076;-70
2023/09/15 11:08:23;;;;;;;2.38;2.10;;;;;;;;;;6157601;23;20399;-68
2023/09/15 11:10:59;;;;;;;5.25;2.17;;;;;;;;;;6157563;23;20508;-70
2023/09/15 11:13:26;;;;;;;2.47;1.90;;;;;;;;;;6157700;23;20515;-70
2023/09/15 11:15:52;;;;;;;3.33;2.13;;;;;;;;;;6183848;23;20185;-70
2023/09/15 11:18:19;;;;;;;5.28;2.50;;;;;;;;;;6183717;23;20076;-70
2023/09/15 11:20:45;;;;;;;6.53;2.58;;;;;;;;;;6183653;23;20444;-70
2023/09/15 11:23:13;;;;;;;2.60;2.40;;;;;;;;;;6183311;23;20092;-70
2023/09/15 11:25:39;;;;;;;3.60;2.50;;;;;;;;;;6183971;23;20080;-70
2023/09/15 11:28:12;;;;;;;3.85;2.33;;;;;;;;;;6183857;23;20499;-70
2023/09/15 11:30:38;;;;;;;3.65;2.58;;;;;;;;;;6183943;23;20072;-69
2023/09/15 11:33:06;;;;;;;4.13;2.38;;;;;;;;;;6183860;23;20389;-70
2023/09/15 11:35:32;;;;;;;3.58;2.08;;;;;;;;;;6185785;23;20515;-70
2023/09/15 11:38:00;;;;;;;2.50;1.90;;;;;;;;;;6179703;23;20136;-70
2023/09/15 11:40:26;;;;;;;3.75;2.17;;;;;;;;;;6178706;23;20406;-70
2023/09/15 11:42:56;;;;;;;5.75;2.33;;;;;;;;;;6157878;23;20075;-70
2023/09/15 11:45:26;;;;;;;3.58;1.98;;;;;;;;;;6184335;23;20087;-70
2023/09/15 11:47:53;;;;;;;6.38;2.17;;;;;;;;;;6184568;23;20084;-70
2023/09/15 11:50:20;;;;;;;6.85;2.40;;;;;;;;;;6184219;23;20539;-70
2023/09/15 11:52:46;;;;;;;6.25;2.13;;;;;;;;;;6183224;23;20479;-70
2023/09/15 11:55:16;;;;;;;5.68;2.40;;;;;;;;;;6157916;23;20515;-70
2023/09/15 11:57:45;;;;;;;8.68;2.45;;;;;;;;;;6183997;23;20075;-70
2023/09/15 12:00:14;;;;;;;2.80;2.15;;;;;;;;;;6182088;23;20321;-71
2023/09/15 12:02:40;;;;;;;6.10;2.20;;;;;;;;;;6183518;23;20076;-70
2023/09/15 12:05:06;;;;;;;2.40;2.10;;;;;;;;;;6183865;23;20084;-70
2023/09/15 12:07:33;;;;;;;2.83;2.15;;;;;;;;;;6183484;23;20080;-70
2023/09/15 12:10:00;;;;;;;4.50;2.90;;;;;;;;;;6184486;23;20080;-69
2023/09/15 12:12:26;;;;;;;4.93;2.13;;;;;;;;;;6184282;23;20068;-69
2023/09/15 12:15:00;;;;;;;6.63;2.50;;;;;;;;;;6184039;23;20088;-69
2023/09/15 12:17:27;;;;;;;5.13;2.45;;;;;;;;;;6183472;23;20076;-70
2023/09/15 12:20:00;;;;;;;3.60;2.60;;;;;;;;;;6157699;23;20096;-70
2023/09/15 12:22:40;;;;;;;3.25;2.30;;;;;;;;;;6183477;23;20072;-70
2023/09/15 12:25:07;;;;;;;2.75;2.20;;;;;;;;;;6183854;23;20586;-70
2023/09/15 12:27:34;;;;;;;8.90;2.35;;;;;;;;;;6183741;23;20511;-69
2023/09/15 12:30:05;;;;;;;3.13;2.47;;;;;;;;;;6157595;23;20108;-69
2023/09/15 12:32:32;;;;;;;7.20;2.30;;;;;;;;;;6183593;23;20131;-69
2023/09/15 12:34:58;;;;;;;3.83;2.50;;;;;;;;;;6183468;23;20072;-69
2023/09/15 12:37:28;;;;;;;2.97;2.28;;;;;;;;;;6182276;23;20072;-69
2023/09/15 12:39:54;;;;;;;4.25;2.25;;;;;;;;;;6183300;23;20106;-69
2023/09/15 12:42:21;;;;;;;3.53;2.72;;;;;;;;;;6183791;23;20077;-69
2023/09/15 12:44:47;;;;;;;2.10;1.90;;;;;;;;;;6184090;23;20084;-70
2023/09/15 12:47:14;;;;;;;4.47;2.13;;;;;;;;;;6183718;23;20068;-70
2023/09/15 12:49:40;;;;;;;3.95;2.33;;;;;;;;;;6183891;23;20080;-69
2023/09/15 12:52:07;;;;;;;3.83;2.10;;;;;;;;;;6181811;23;20397;-69
2023/09/15 12:54:33;;;;;;;4.15;1.88;;;;;;;;;;6153443;23;20099;-70
2023/09/15 12:57:00;;;;;;;5.50;1.95;;;;;;;;;;6183777;23;20080;-70
2023/09/15 12:59:26;;;;;;;9.15;1.98;;;;;;;;;;6182478;23;20017;-69
2023/09/15 13:01:57;;;;;;;5.55;2.03;;;;;;;;;;6181587;23;20007;-69
2023/09/15 13:04:24;;;;;;;4.90;1.73;;;;;;;;;;6180816;23;20088;-69
2023/09/15 13:07:00;;;;;;;3.00;1.90;;;;;;;;;;6181935;23;20112;-70
2023/09/15 13:09:32;;;;;;;2.53;1.90;;;;;;;;;;6181277;23;20076;-70
2023/09/15 13:11:59;;;;;;;3.15;1.98;;;;;;;;;;6182307;23;20388;-70
2023/09/15 13:14:26;;;;;;;3.45;1.80;;;;;;;;;;6182818;23;20076;-71
2023/09/15 13:16:52;;;;;;;3.08;1.90;;;;;;;;;;6182372;23;20076;-70
2023/09/15 13:19:19;;;;;;;4.30;1.60;;;;;;;;;;6155214;23;20087;-67
2023/09/15 13:21:45;;;;;;;1.70;1.50;;;;;;;;;;6181365;23;20068;-69
2023/09/15 13:24:11;;;;;;;2.58;1.70;;;;;;;;;;6183082;23;20083;-69
2023/09/15 13:26:38;;;;;;;2.00;1.80;;;;;;;;;;6182620;23;20076;-70
2023/09/15 13:29:04;;;;;;;2.00;1.50;;;;;;;;;;6183775;23;20076;-70
2023/09/15 13:31:31;;;;;;;2.53;1.83;;;;;;;;;;6182458;23;20485;-70
2023/09/15 13:33:57;;;;;;;3.65;1.58;;;;;;;;;;6181672;23;20081;-70
2023/09/15 13:36:23;;;;;;;4.03;1.98;;;;;;;;;;6181954;23;20090;-69
2023/09/15 13:38:50;;;;;;;3.03;1.73;;;;;;;;;;6183497;23;20395;-69
2023/09/15 13:41:16;;;;;;;4.25;1.83;;;;;;;;;;6181510;23;20084;-70
2023/09/15 13:43:43;;;;;;;2.75;1.65;;;;;;;;;;6181491;23;20005;-70
2023/09/15 13:46:09;;;;;;;3.05;1.70;;;;;;;;;;6182754;23;20387;-70
2023/09/15 13:48:36;;;;;;;3.80;1.60;;;;;;;;;;6182386;23;20081;-69
2023/09/15 13:51:03;;;;;;;4.20;1.65;;;;;;;;;;6182977;23;20004;-68
2023/09/15 13:53:34;;;;;;;3.80;1.60;;;;;;;;;;6155057;23;20091;-70
2023/09/15 13:56:02;;;;;;;2.13;1.50;;;;;;;;;;6155958;23;20084;-69
2023/09/15 13:58:29;;;;;;;3.53;1.52;;;;;;;;;;6181766;23;20092;-70
2023/09/15 14:00:59;;;;;;;2.60;1.77;;;;;;;;;;6181011;23;20019;-70
2023/09/15 14:03:26;;;;;;;2.55;1.83;;;;;;;;;;6182499;23;20076;-70
2023/09/15 14:05:53;;;;;;;2.08;1.70;;;;;;;;;;6156451;23;20076;-69
2023/09/15 14:08:19;;;;;;;1.80;1.70;;;;;;;;;;6181967;23;20503;-70
2023/09/15 14:10:46;;;;;;;3.65;1.70;;;;;;;;;;6182397;23;20088;-70
2023/09/15 14:13:14;;;;;;;4.05;1.85;;;;;;;;;;6155725;23;20068;-69
2023/09/15 14:15:42;;;;;;;2.15;1.70;;;;;;;;;;6182320;23;20393;-69
2023/09/15 14:18:08;;;;;;;1.85;1.50;;;;;;;;;;6182649;23;20405;-69
2023/09/15 14:20:35;;;;;;;4.50;1.75;;;;;;;;;;6182281;23;20024;-69
2023/09/15 14:23:02;;;;;;;3.85;1.70;;;;;;;;;;6183376;23;20068;-69
2023/09/15 14:25:28;;;;;;;3.70;1.90;;;;;;;;;;6156852;23;20080;-70
2023/09/15 14:27:55;;;;;;;4.03;1.80;;;;;;;;;;6182914;23;20092;-70
2023/09/15 14:30:21;;;;;;;3.78;1.70;;;;;;;;;;6182757;23;20128;-69
2023/09/15 14:32:48;;;;;;;6.03;1.92;;;;;;;;;;6182635;23;20511;-69
2023/09/15 14:35:16;;;;;;;2.08;1.80;;;;;;;;;;6182852;23;20072;-69
2023/09/15 14:37:43;;;;;;;2.92;1.77;;;;;;;;;;6183216;23;20087;-69
2023/09/15 14:40:10;;;;;;;4.28;1.90;;;;;;;;;;6182704;23;20574;-69
2023/09/15 14:42:38;;;;;;;2.65;1.70;;;;;;;;;;6182893;23;20096;-69